Terminal Aerodrome Forecast
Issued by NWS

Home | Current Version | Previous Version | Text Only | Print | Product List | Glossary On
Versions: 1 2 3 4 5 6 7 8 9 10 11 12 13 14 15 16 17 18 19 20 21 22 23 24 25 26
000
FTUS42 KCAE 242300
TAFDNL
TAF
KDNL 242338Z 2500/2524 20009KT P6SM VCSH SCT008 BKN013 OVC025
      TEMPO 2500/2502 6SM -DZ BR BKN008 OVC013
     FM250200 22011G20KT P6SM SCT020 BKN040 OVC100
     FM250600 25012G18KT P6SM BKN100 OVC250
     FM251400 28010G17KT P6SM FEW200
     FM252100 28008KT P6SM SKC=

USA.gov is the U.S. government's official web portal to all federal, state and local government web resources and services.